Elgin, United Kingdom
Current Conditions -  °F | °C
As of 5:50 PM on Tuesday 21 Oct 2014 (Local Time) from EGQS Reporting Station
Broken Clouds Broken Clouds  
Wind Chill: 37°   Ceiling: 6000
Heat Index: 46°   Visibility: 6mi
Dew Point: 32°   Wind: 33mph
Humidity: 57%   Direction: 310°NW
Pressure: 29.65"   Gusts: 48mph
Location:  57.65°N, 3.33°W
Report Text: EGQS 211650Z 31029G42KT 9999 FEW040 BKN060 08/M00 Q1004 BLU
Loading
Personal Weather Stations






























Interactive Weather Map
Tropical Storm Tracking
New forecast layout! Learn more

10-Day Weather Forecast

Advertisements
Track Severe Weather on mobile